Time;durP1;ratioP1;P1;durP2;ratioP2;P2;SDS_P1;SDS_P2;PMS_P1;PMS_P2;Temp;Humidity;BMP_temperature;BMP_pressure;BME280_temperature;BME280_humidity;BME280_pressure;Samples;Min_cycle;Max_cycle;Signal;HPM_P1;HPM_P2
2022/07/31 00:01:50;;;;;;;6.07;1.92;;;19.40;99.90;;;;;;5076690;28;20043;-68
2022/07/31 00:04:16;;;;;;;3.92;1.67;;;19.40;99.90;;;;;;5076547;28;20101;-68
2022/07/31 00:06:43;;;;;;;5.43;1.52;;;19.40;99.90;;;;;;5076558;28;20067;-68
2022/07/31 00:09:09;;;;;;;4.38;1.90;;;19.40;99.90;;;;;;5076276;28;20070;-68
2022/07/31 00:11:35;;;;;;;2.60;2.00;;;19.40;99.90;;;;;;5076572;28;20037;-67
2022/07/31 00:14:00;;;;;;;4.50;2.20;;;19.40;99.90;;;;;;5076320;28;20045;-68
2022/07/31 00:16:26;;;;;;;3.80;1.40;;;19.40;99.90;;;;;;5076483;28;20040;-68
2022/07/31 00:18:55;;;;;;;5.13;1.90;;;19.30;99.90;;;;;;5076447;28;20040;-68
2022/07/31 00:21:20;;;;;;;;;;;19.30;99.90;;;;;;5076880;28;20086;-68
2022/07/31 00:23:46;;;;;;;3.60;1.90;;;19.30;99.90;;;;;;5076267;28;20320;-68
2022/07/31 00:26:11;;;;;;;2.70;1.63;;;19.30;99.90;;;;;;5076172;28;20470;-68
2022/07/31 00:28:37;;;;;;;5.40;1.90;;;19.30;99.90;;;;;;5076066;28;20076;-68
2022/07/31 00:31:03;;;;;;;2.95;1.70;;;19.30;99.90;;;;;;5076072;28;20075;-68
2022/07/31 00:33:28;;;;;;;4.95;2.03;;;19.30;99.90;;;;;;5076019;28;20040;-68
2022/07/31 00:35:54;;;;;;;2.40;1.67;;;19.40;99.90;;;;;;5076045;28;20036;-68
2022/07/31 00:38:19;;;;;;;6.22;2.00;;;19.30;99.90;;;;;;5075572;28;20060;-67
2022/07/31 00:40:49;;;;;;;4.13;1.98;;;19.30;99.90;;;;;;5076010;28;20043;-67
2022/07/31 00:43:15;;;;;;;5.07;1.70;;;19.30;99.90;;;;;;5075835;28;20111;-67
2022/07/31 00:45:41;;;;;;;3.72;1.63;;;19.30;99.90;;;;;;5075936;28;20055;-67
2022/07/31 00:48:07;;;;;;;6.82;1.70;;;19.30;99.90;;;;;;5075820;28;20111;-68
2022/07/31 00:50:33;;;;;;;4.50;2.88;;;19.30;99.90;;;;;;5075696;28;20068;-68
2022/07/31 00:52:59;;;;;;;5.00;2.03;;;19.30;99.90;;;;;;5075735;28;20036;-68
2022/07/31 00:55:25;;;;;;;5.63;1.80;;;19.20;99.90;;;;;;5075582;28;20391;-68
2022/07/31 00:57:54;;;;;;;5.32;1.85;;;19.20;99.90;;;;;;5075350;28;20364;-68
2022/07/31 01:00:19;;;;;;;2.10;1.85;;;19.20;99.90;;;;;;5075127;28;20044;-68
2022/07/31 01:02:45;;;;;;;1.90;1.70;;;19.20;99.90;;;;;;5075584;28;20395;-68
2022/07/31 01:05:11;;;;;;;6.88;1.95;;;19.20;99.90;;;;;;5075470;28;20040;-68
2022/07/31 01:07:36;;;;;;;2.90;1.52;;;19.10;99.90;;;;;;5075336;28;20394;-68
2022/07/31 01:10:08;;;;;;;3.60;1.90;;;19.10;99.90;;;;;;5075304;28;20040;-68
2022/07/31 01:12:58;;;;;;;4.20;1.63;;;19.00;99.90;;;;;;5075573;28;20040;-68
2022/07/31 01:15:25;;;;;;;3.85;1.73;;;19.10;99.90;;;;;;5075065;28;20068;-68
2022/07/31 01:17:52;;;;;;;5.90;2.00;;;19.00;99.90;;;;;;5075204;28;20123;-68
2022/07/31 01:20:18;;;;;;;4.93;2.38;;;19.00;99.90;;;;;;5075053;28;20094;-68
2022/07/31 01:23:12;;;;;;;8.85;2.47;;;19.00;99.90;;;;;;5075163;28;20032;-68
2022/07/31 01:26:13;;;;;;;6.95;2.22;;;18.90;99.90;;;;;;5074845;28;20033;-67
2022/07/31 01:28:56;;;;;;;4.30;2.17;;;19.00;99.90;;;;;;5032844;28;20128;-68
2022/07/31 01:31:32;;;;;;;4.57;1.90;;;19.00;99.90;;;;;;5032909;28;20041;-68
2022/07/31 01:34:25;;;;;;;8.90;2.00;;;18.90;99.90;;;;;;5032854;28;20046;-68
2022/07/31 01:36:59;;;;;;;3.67;1.90;;;18.90;99.90;;;;;;5032740;28;20124;-68
2022/07/31 01:39:26;;;;;;;4.05;2.50;;;18.90;99.90;;;;;;5032557;28;20104;-68
2022/07/31 01:41:52;;;;;;;4.47;2.30;;;18.90;99.90;;;;;;5032679;28;20141;-68
2022/07/31 01:44:19;;;;;;;6.70;2.25;;;18.90;99.90;;;;;;5033132;28;20033;-68
2022/07/31 01:46:46;;;;;;;4.30;2.45;;;18.90;99.90;;;;;;5032559;28;20042;-68
2022/07/31 01:49:14;;;;;;;5.82;2.35;;;18.90;99.90;;;;;;5015950;28;20168;-68
2022/07/31 01:51:42;;;;;;;3.17;2.03;;;18.90;99.90;;;;;;5032410;28;20057;-68
2022/07/31 01:54:09;;;;;;;4.72;2.60;;;18.90;99.90;;;;;;5032484;28;20073;-68
2022/07/31 01:56:36;;;;;;;5.28;2.25;;;18.90;99.90;;;;;;5032169;28;20083;-68
2022/07/31 01:59:04;;;;;;;3.38;2.03;;;18.90;99.90;;;;;;5032282;28;20134;-68
2022/07/31 02:01:31;;;;;;;3.05;1.90;;;18.90;99.90;;;;;;5032203;28;20588;-68
2022/07/31 02:03:57;;;;;;;3.10;2.10;;;18.90;99.90;;;;;;5032409;28;20045;-69
2022/07/31 02:06:24;;;;;;;3.63;2.08;;;18.90;99.90;;;;;;5070318;28;20433;-68
2022/07/31 02:08:53;;;;;;;4.10;1.90;;;18.90;99.90;;;;;;5074163;28;20471;-68
2022/07/31 02:11:19;;;;;;;6.22;2.30;;;18.90;99.90;;;;;;5074010;28;20040;-68
2022/07/31 02:13:47;;;;;;;4.97;2.00;;;18.90;99.90;;;;;;5074199;28;20044;-68
2022/07/31 02:16:15;;;;;;;5.83;2.27;;;18.90;99.90;;;;;;5074206;28;20036;-68
2022/07/31 02:18:41;;;;;;;5.47;2.50;;;18.90;99.90;;;;;;5074111;28;20037;-69
2022/07/31 02:21:07;;;;;;;6.90;2.40;;;18.80;99.90;;;;;;5074109;28;20033;-68
2022/07/31 02:23:33;;;;;;;6.78;2.38;;;18.80;99.90;;;;;;5073851;28;20403;-69
2022/07/31 02:26:01;;;;;;;5.63;2.70;;;18.80;99.90;;;;;;5073182;28;20040;-68
2022/07/31 02:28:29;;;;;;;8.35;3.10;;;18.80;99.90;;;;;;5074008;28;20506;-68
2022/07/31 02:30:56;;;;;;;4.55;2.88;;;18.80;99.90;;;;;;5073936;28;20041;-68
2022/07/31 02:33:25;;;;;;;4.65;2.42;;;18.80;99.90;;;;;;5073919;28;20036;-68
2022/07/31 02:35:55;;;;;;;5.38;2.35;;;18.80;99.90;;;;;;5072277;28;20080;-68
2022/07/31 02:38:25;;;;;;;5.68;2.42;;;18.80;99.90;;;;;;5073359;28;20060;-68
2022/07/31 02:40:53;;;;;;;3.60;2.17;;;18.70;99.90;;;;;;5073583;28;20048;-68
2022/07/31 02:43:20;;;;;;;3.65;2.38;;;18.80;99.90;;;;;;5073893;28;20131;-68
2022/07/31 02:45:46;;;;;;;4.88;2.35;;;18.80;99.90;;;;;;5073839;28;20390;-69
2022/07/31 02:48:11;;;;;;;2.50;2.30;;;18.80;99.90;;;;;;5072586;28;20028;-68
2022/07/31 02:50:38;;;;;;;3.67;2.30;;;18.80;99.90;;;;;;5073797;28;20360;-69
2022/07/31 02:53:04;;;;;;;4.45;2.30;;;18.80;99.90;;;;;;5073654;28;20037;-68
2022/07/31 02:55:30;;;;;;;2.55;1.75;;;18.70;99.90;;;;;;5073609;28;20364;-68
2022/07/31 02:57:56;;;;;;;3.35;2.05;;;18.80;99.90;;;;;;5072197;28;20048;-68
2022/07/31 03:00:22;;;;;;;2.17;1.95;;;18.80;99.90;;;;;;5073523;28;20028;-68
2022/07/31 03:02:51;;;;;;;2.10;1.80;;;18.80;99.90;;;;;;5073669;28;20039;-68
2022/07/31 03:05:17;;;;;;;8.13;1.98;;;18.80;99.90;;;;;;5073602;28;20037;-68
2022/07/31 03:07:44;;;;;;;5.60;3.05;;;18.80;99.90;;;;;;5073616;28;20463;-68
2022/07/31 03:10:09;;;;;;;4.30;2.15;;;18.80;99.90;;;;;;5073518;28;20066;-68
2022/07/31 03:12:39;;;;;;;3.40;1.95;;;18.70;99.90;;;;;;5073504;28;20491;-68
2022/07/31 03:15:11;;;;;;;4.32;1.90;;;18.80;99.90;;;;;;5073458;28;20076;-68
2022/07/31 03:17:39;;;;;;;4.78;2.20;;;18.70;99.90;;;;;;5073364;28;20091;-68
2022/07/31 03:20:06;;;;;;;4.88;2.03;;;18.80;99.90;;;;;;5073424;28;20137;-68
2022/07/31 03:22:33;;;;;;;4.15;2.40;;;18.70;99.90;;;;;;5075650;28;20044;-69
2022/07/31 03:25:00;;;;;;;4.60;2.03;;;18.70;99.90;;;;;;5077459;28;20071;-68
2022/07/31 03:27:26;;;;;;;3.88;2.00;;;18.70;99.90;;;;;;5077275;28;20044;-68
2022/07/31 03:29:53;;;;;;;3.85;2.20;;;18.70;99.90;;;;;;5077373;28;20395;-68
2022/07/31 03:32:19;;;;;;;7.40;2.25;;;18.70;99.90;;;;;;5077293;28;20036;-68
2022/07/31 03:34:45;;;;;;;2.75;2.10;;;18.60;99.90;;;;;;5075771;28;20072;-68
2022/07/31 03:37:11;;;;;;;4.13;2.10;;;18.60;99.90;;;;;;5076895;28;20066;-67
2022/07/31 03:39:37;;;;;;;3.53;2.30;;;18.60;99.90;;;;;;5077053;28;20048;-68
2022/07/31 03:42:03;;;;;;;4.60;2.20;;;18.60;99.90;;;;;;5077088;28;20044;-68
2022/07/31 03:44:31;;;;;;;4.10;2.30;;;18.50;99.90;;;;;;5077032;28;20434;-68
2022/07/31 03:46:58;;;;;;;6.20;2.30;;;18.50;99.90;;;;;;5076903;28;20032;-68
2022/07/31 03:49:24;;;;;;;5.85;2.60;;;18.40;99.90;;;;;;5076960;28;20094;-68
2022/07/31 03:51:50;;;;;;;4.78;2.22;;;18.40;99.90;;;;;;5076828;28;20033;-68
2022/07/31 03:54:15;;;;;;;6.18;2.00;;;18.40;99.90;;;;;;5076500;28;20043;-68
2022/07/31 03:56:45;;;;;;;3.85;2.20;;;18.30;99.90;;;;;;5076600;28;20047;-68
2022/07/31 03:59:12;;;;;;;3.97;2.20;;;18.30;99.90;;;;;;5076716;28;20119;-67
2022/07/31 04:01:38;;;;;;;6.85;2.40;;;18.30;99.90;;;;;;5076502;28;20062;-68
2022/07/31 04:04:04;;;;;;;12.38;3.13;;;18.30;99.90;;;;;;5076679;28;20111;-67
2022/07/31 04:06:29;;;;;;;4.70;1.98;;;18.40;99.90;;;;;;5076349;28;20032;-67
2022/07/31 04:08:55;;;;;;;4.93;2.30;;;18.40;99.90;;;;;;5076583;28;20385;-67
2022/07/31 04:11:20;;;;;;;3.25;2.28;;;18.40;99.90;;;;;;5076599;28;20097;-68
2022/07/31 04:13:46;;;;;;;4.03;2.42;;;18.30;99.90;;;;;;5076757;28;20052;-68
2022/07/31 04:16:12;;;;;;;6.30;3.38;;;18.30;99.90;;;;;;5075005;28;20056;-68
2022/07/31 04:18:38;;;;;;;7.75;2.35;;;18.20;99.90;;;;;;5076390;28;20044;-66
2022/07/31 04:21:04;;;;;;;4.10;2.42;;;18.20;99.90;;;;;;5076437;28;20036;-67
2022/07/31 04:23:29;;;;;;;2.95;2.30;;;18.10;99.90;;;;;;5076219;28;20037;-67
2022/07/31 04:25:55;;;;;;;5.00;2.70;;;18.10;99.90;;;;;;5076292;28;20039;-67
2022/07/31 04:28:20;;;;;;;4.35;2.88;;;18.10;99.90;;;;;;5076250;28;20490;-67
2022/07/31 04:30:46;;;;;;;3.97;2.45;;;18.10;99.90;;;;;;5076154;28;20111;-68
2022/07/31 04:33:12;;;;;;;4.95;2.40;;;18.10;99.90;;;;;;5074947;28;20032;-68
2022/07/31 04:35:39;;;;;;;5.03;2.65;;;18.10;99.90;;;;;;5075714;28;20465;-68
2022/07/31 04:38:04;;;;;;;6.38;2.58;;;18.10;99.90;;;;;;5076012;28;20091;-68
2022/07/31 04:40:30;;;;;;;3.80;3.40;;;18.10;99.90;;;;;;5076042;28;20451;-68
2022/07/31 04:42:56;;;;;;;4.00;2.55;;;18.10;99.90;;;;;;5075751;28;20402;-68
2022/07/31 04:45:24;;;;;;;8.10;2.97;;;18.10;99.90;;;;;;5075719;28;20040;-68
2022/07/31 04:47:49;;;;;;;3.50;2.80;;;18.20;99.90;;;;;;5075839;28;20378;-68
2022/07/31 04:50:15;;;;;;;5.03;2.75;;;18.10;99.90;;;;;;5076108;28;20043;-68
2022/07/31 04:52:41;;;;;;;6.40;2.72;;;18.20;99.90;;;;;;5075802;28;20048;-68
2022/07/31 04:55:07;;;;;;;3.85;2.55;;;18.20;99.90;;;;;;5075760;28;20141;-68
2022/07/31 04:57:32;;;;;;;3.60;2.58;;;18.20;99.90;;;;;;5075687;28;20044;-68
2022/07/31 04:59:58;;;;;;;5.90;2.70;;;18.20;99.90;;;;;;5075518;28;20040;-67
2022/07/31 05:02:24;;;;;;;2.83;2.50;;;18.30;99.90;;;;;;5075279;28;20395;-67
2022/07/31 05:04:49;;;;;;;4.68;2.53;;;18.30;99.90;;;;;;5075533;28;20036;-67
2022/07/31 05:07:15;;;;;;;4.45;2.30;;;18.30;99.90;;;;;;5074076;28;20049;-68
2022/07/31 05:09:40;;;;;;;4.57;2.85;;;18.30;99.90;;;;;;5075601;28;20120;-67
2022/07/31 05:12:07;;;;;;;6.72;2.80;;;18.30;99.90;;;;;;5075378;28;20128;-68
2022/07/31 05:14:32;;;;;;;3.53;2.60;;;18.40;99.90;;;;;;5075243;28;20102;-67
2022/07/31 05:16:58;;;;;;;5.60;3.40;;;18.40;99.90;;;;;;5075205;28;20044;-68
2022/07/31 05:19:28;;;;;;;5.38;3.05;;;18.40;99.90;;;;;;5075004;28;20383;-68
2022/07/31 05:21:56;;;;;;;7.25;3.50;;;18.40;99.90;;;;;;5075041;28;20560;-67
2022/07/31 05:24:22;;;;;;;4.82;2.90;;;18.50;99.90;;;;;;5075103;28;20033;-68
2022/07/31 05:26:47;;;;;;;5.05;2.70;;;18.50;99.90;;;;;;5074992;28;20036;-68
2022/07/31 05:29:13;;;;;;;4.75;3.38;;;18.50;99.90;;;;;;5075102;28;20032;-68
2022/07/31 05:31:39;;;;;;;6.57;4.10;;;18.50;99.90;;;;;;5074294;28;20093;-67
2022/07/31 05:34:04;;;;;;;6.20;3.05;;;18.50;99.90;;;;;;5074977;28;20048;-67
2022/07/31 05:36:30;;;;;;;6.10;3.35;;;18.60;99.90;;;;;;5074897;28;20391;-67
2022/07/31 05:38:55;;;;;;;7.10;3.75;;;18.60;99.90;;;;;;5074456;28;20045;-68
2022/07/31 05:41:21;;;;;;;5.85;3.30;;;18.50;99.90;;;;;;5074741;28;20083;-67
2022/07/31 05:43:47;;;;;;;5.40;3.60;;;18.60;99.90;;;;;;5074935;28;20516;-68
2022/07/31 05:46:13;;;;;;;6.63;3.25;;;18.60;99.90;;;;;;5073320;28;20043;-68
2022/07/31 05:48:40;;;;;;;10.68;4.13;;;18.70;99.90;;;;;;5074651;28;20177;-67
2022/07/31 05:51:09;;;;;;;4.80;3.20;;;18.60;99.90;;;;;;5075194;28;20076;-67
2022/07/31 05:53:35;;;;;;;7.68;3.10;;;18.70;99.90;;;;;;5074414;28;20086;-68
2022/07/31 05:56:00;;;;;;;6.03;3.53;;;18.80;99.90;;;;;;5074555;28;20036;-68
2022/07/31 05:58:26;;;;;;;6.28;3.28;;;18.80;99.90;;;;;;5074436;28;20094;-69
2022/07/31 06:00:51;;;;;;;6.60;3.25;;;18.90;99.90;;;;;;5074453;28;20068;-68
2022/07/31 06:03:22;;;;;;;3.22;3.00;;;18.80;99.90;;;;;;5074433;28;20363;-68
2022/07/31 06:05:48;;;;;;;7.45;3.53;;;18.90;99.90;;;;;;5074236;28;20547;-68
2022/07/31 06:08:13;;;;;;;9.20;4.38;;;18.90;99.90;;;;;;5074344;28;20064;-68
2022/07/31 06:10:39;;;;;;;6.28;3.75;;;18.90;99.90;;;;;;5074323;28;20444;-67
2022/07/31 06:13:05;;;;;;;5.85;3.72;;;19.00;99.90;;;;;;5074142;28;20036;-68
2022/07/31 06:15:31;;;;;;;7.97;4.43;;;19.00;99.90;;;;;;5074094;28;20037;-68
2022/07/31 06:17:57;;;;;;;7.13;3.83;;;19.10;99.90;;;;;;5074222;28;20452;-68
2022/07/31 06:20:23;;;;;;;7.82;4.20;;;19.10;99.90;;;;;;5073845;28;20043;-68
2022/07/31 06:22:49;;;;;;;7.75;4.53;;;19.20;99.90;;;;;;5074091;28;20024;-68
2022/07/31 06:25:15;;;;;;;4.93;4.03;;;19.20;99.90;;;;;;5073889;28;20039;-67
2022/07/31 06:27:41;;;;;;;5.18;3.60;;;19.20;99.90;;;;;;5073342;28;20058;-67
2022/07/31 06:30:08;;;;;;;6.25;4.22;;;19.20;99.90;;;;;;5073863;28;20051;-67
2022/07/31 06:32:34;;;;;;;6.70;4.43;;;19.30;99.90;;;;;;5073725;28;20051;-67
2022/07/31 06:34:59;;;;;;;8.07;3.97;;;19.40;99.90;;;;;;5073736;28;20036;-67
2022/07/31 06:37:26;;;;;;;7.22;4.13;;;19.40;99.90;;;;;;5073566;28;20109;-67
2022/07/31 06:39:53;;;;;;;5.07;3.75;;;19.50;99.90;;;;;;5072622;28;20128;-67
2022/07/31 06:42:22;;;;;;;5.05;3.90;;;19.60;99.90;;;;;;5073821;28;20044;-68
2022/07/31 06:44:48;;;;;;;6.15;3.70;;;19.60;99.90;;;;;;5073788;28;20036;-68
2022/07/31 06:47:14;;;;;;;9.57;3.90;;;19.70;99.90;;;;;;5073732;28;20043;-67
2022/07/31 06:49:40;;;;;;;7.85;4.00;;;19.70;99.90;;;;;;5071874;28;20052;-68
2022/07/31 06:52:06;;;;;;;5.90;4.45;;;19.70;99.90;;;;;;5073772;28;20052;-68
2022/07/31 06:54:32;;;;;;;9.35;3.95;;;19.80;99.90;;;;;;5073889;28;20068;-68
2022/07/31 06:56:57;;;;;;;9.38;4.50;;;19.90;99.90;;;;;;5072513;28;20040;-68
2022/07/31 06:59:23;;;;;;;7.15;4.50;;;19.90;99.90;;;;;;5073488;28;20052;-68
2022/07/31 07:01:49;;;;;;;10.10;4.78;;;19.90;99.90;;;;;;5073631;28;20379;-68
2022/07/31 07:04:14;;;;;;;5.45;4.18;;;19.90;99.90;;;;;;5073600;28;20036;-68
2022/07/31 07:06:40;;;;;;;6.72;4.47;;;20.00;99.90;;;;;;5073595;28;20139;-68
2022/07/31 07:09:06;;;;;;;7.80;4.40;;;20.10;99.90;;;;;;5073607;28;20029;-68
2022/07/31 07:11:31;;;;;;;8.77;4.80;;;20.10;99.90;;;;;;5073484;28;20487;-68
2022/07/31 07:13:57;;;;;;;10.02;5.00;;;20.10;99.90;;;;;;5073505;28;20395;-68
2022/07/31 07:16:23;;;;;;;7.35;4.63;;;20.10;99.90;;;;;;5073508;28;20041;-68
2022/07/31 07:18:48;;;;;;;10.50;4.75;;;20.20;99.90;;;;;;5073348;28;20066;-68
2022/07/31 07:21:14;;;;;;;6.50;4.38;;;20.10;99.90;;;;;;5073569;28;20487;-67
2022/07/31 07:23:40;;;;;;;5.82;4.80;;;20.20;99.90;;;;;;5073312;28;20071;-69
2022/07/31 07:26:06;;;;;;;7.57;4.75;;;20.20;99.90;;;;;;5073392;28;20387;-68
2022/07/31 07:28:31;;;;;;;6.43;4.82;;;20.20;99.90;;;;;;5073288;28;20041;-65
2022/07/31 07:30:58;;;;;;;8.95;5.05;;;20.20;99.90;;;;;;5073233;28;20037;-67
2022/07/31 07:33:23;;;;;;;7.80;5.10;;;20.30;99.90;;;;;;5073364;28;20036;-66
2022/07/31 07:35:49;;;;;;;8.00;4.80;;;20.30;99.90;;;;;;5073398;28;20067;-66
2022/07/31 07:38:15;;;;;;;13.20;4.63;;;20.40;99.90;;;;;;5072981;28;20503;-66
2022/07/31 07:40:40;;;;;;;7.53;4.25;;;20.50;99.90;;;;;;5072035;28;20067;-66
2022/07/31 07:43:06;;;;;;;6.47;4.35;;;20.50;99.90;;;;;;5073026;28;20041;-66
2022/07/31 07:45:31;;;;;;;6.38;4.57;;;20.60;99.90;;;;;;5073104;28;20040;-65
2022/07/31 07:47:57;;;;;;;7.05;5.03;;;20.50;99.90;;;;;;5073407;28;20032;-66
2022/07/31 07:50:23;;;;;;;8.73;5.53;;;20.60;99.90;;;;;;5073201;28;20528;-65
2022/07/31 07:52:48;;;;;;;9.25;5.63;;;20.60;99.90;;;;;;5071896;28;20037;-66
2022/07/31 07:55:14;;;;;;;6.53;4.97;;;20.70;99.90;;;;;;5072851;28;20063;-66
2022/07/31 07:57:43;;;;;;;5.55;4.75;;;21.00;99.90;;;;;;5073067;28;20079;-65
2022/07/31 08:00:10;;;;;;;9.32;4.75;;;21.30;99.90;;;;;;5073039;28;20036;-66
2022/07/31 08:02:37;;;;;;;5.97;4.35;;;21.50;99.90;;;;;;5073134;28;20060;-66
2022/07/31 08:05:03;;;;;;;9.82;4.82;;;21.70;99.90;;;;;;5072952;28;20037;-65
2022/07/31 08:07:31;;;;;;;6.50;4.35;;;21.80;99.90;;;;;;5073283;28;20067;-65
2022/07/31 08:09:58;;;;;;;11.00;5.65;;;22.00;99.90;;;;;;5076267;28;20125;-66
2022/07/31 08:12:24;;;;;;;7.28;5.57;;;22.00;99.90;;;;;;5076287;28;20498;-66
2022/07/31 08:14:50;;;;;;;8.90;4.18;;;22.10;99.90;;;;;;5076437;28;20047;-64
2022/07/31 08:17:16;;;;;;;6.30;5.47;;;22.10;99.90;;;;;;5076198;28;20394;-65
2022/07/31 08:19:41;;;;;;;7.38;5.28;;;22.10;99.90;;;;;;5076351;28;20383;-65
2022/07/31 08:22:07;;;;;;;6.75;5.13;;;22.10;99.90;;;;;;5076285;28;20146;-67
2022/07/31 08:24:33;;;;;;;6.22;4.80;;;22.10;99.90;;;;;;5076198;28;20101;-66
2022/07/31 08:29:44;;;;;;;15.05;5.60;;;22.10;99.90;;;;;;5076246;28;20044;-65
2022/07/31 08:32:10;;;;;;;9.20;4.78;;;22.10;99.90;;;;;;5076151;28;20045;-65
2022/07/31 08:34:36;;;;;;;8.95;4.82;;;22.10;99.90;;;;;;5076063;28;20390;-66
2022/07/31 08:37:03;;;;;;;6.35;4.10;;;22.00;99.90;;;;;;5075455;28;20044;-65
2022/07/31 08:39:29;;;;;;;5.85;4.43;;;22.10;99.90;;;;;;5075951;28;20127;-66
2022/07/31 08:41:54;;;;;;;7.32;4.78;;;22.10;99.90;;;;;;5076001;28;20115;-66
2022/07/31 08:44:20;;;;;;;7.95;4.65;;;22.00;99.90;;;;;;5075861;28;20036;-65
2022/07/31 08:46:46;;;;;;;8.77;5.82;;;22.10;99.90;;;;;;5075930;28;20082;-66
2022/07/31 08:49:15;;;;;;;11.73;5.47;;;22.00;99.90;;;;;;5075827;28;20049;-66
2022/07/31 08:51:42;;;;;;;8.88;5.85;;;21.90;99.90;;;;;;5075715;28;20044;-66
2022/07/31 08:54:09;;;;;;;8.15;6.10;;;21.90;99.90;;;;;;5075837;28;20043;-65
2022/07/31 08:56:37;;;;;;;10.10;6.35;;;21.80;99.90;;;;;;5075724;28;20119;-66
2022/07/31 08:59:06;;;;;;;9.00;6.60;;;21.70;99.90;;;;;;5075478;28;20040;-67
2022/07/31 09:01:33;;;;;;;13.63;7.80;;;21.70;99.90;;;;;;5075647;28;20052;-67
2022/07/31 09:03:59;;;;;;;12.25;8.45;;;21.60;99.90;;;;;;5075488;28;20041;-66
2022/07/31 09:06:25;;;;;;;10.55;7.50;;;21.50;99.90;;;;;;5075382;28;20040;-66
2022/07/31 09:08:51;;;;;;;11.95;7.60;;;21.40;99.90;;;;;;5075653;28;20178;-67
2022/07/31 09:11:17;;;;;;;14.10;8.88;;;21.30;99.90;;;;;;5075596;28;20395;-66
2022/07/31 09:13:54;;;;;;;18.30;9.57;;;21.30;99.90;;;;;;5072061;28;20045;-66
2022/07/31 09:16:20;;;;;;;13.48;9.00;;;21.20;99.90;;;;;;5073910;28;20372;-67
2022/07/31 09:18:59;;;;;;;14.52;9.18;;;21.10;99.90;;;;;;5074415;28;20440;-58
2022/07/31 09:21:25;;;;;;;11.30;9.50;;;21.10;99.90;;;;;;5070236;28;20090;-57
2022/07/31 09:23:53;;;;;;;14.73;10.55;;;21.10;99.90;;;;;;5072241;28;20044;-58
2022/07/31 09:26:31;;;;;;;16.67;11.45;;;21.00;99.90;;;;;;5074364;28;20047;-58
2022/07/31 09:28:59;;;;;;;18.08;11.30;;;21.10;99.90;;;;;;5066943;28;20052;-57
2022/07/31 09:31:30;;;;;;;;;;;21.10;99.90;;;;;;5066883;28;20037;-57
2022/07/31 09:33:56;;;;;;;17.17;11.27;;;21.00;99.90;;;;;;5072115;28;20385;-58
2022/07/31 09:36:25;;;;;;;11.38;10.00;;;20.90;99.90;;;;;;5061708;28;20037;-58
2022/07/31 09:38:50;;;;;;;15.18;11.90;;;20.90;99.90;;;;;;5054735;28;20048;-57
2022/07/31 09:41:19;;;;;;;18.42;12.65;;;20.90;99.90;;;;;;5055295;28;20041;-57
2022/07/31 09:43:55;;;;;;;;;;;20.90;99.90;;;;;;5056536;28;20065;-58
2022/07/31 09:46:20;;;;;;;16.25;11.35;;;20.80;99.90;;;;;;5074614;28;19916;-57
2022/07/31 09:48:51;;;;;;;13.57;10.55;;;20.70;99.90;;;;;;5073275;28;20052;-57
2022/07/31 09:51:17;;;;;;;14.75;11.35;;;20.60;99.90;;;;;;5071118;28;20044;-57
2022/07/31 09:53:51;;;;;;;15.65;10.65;;;20.60;99.90;;;;;;5072176;28;20042;-58
2022/07/31 09:56:33;;;;;;;14.88;12.18;;;20.60;99.90;;;;;;5074513;28;20046;-57
2022/07/31 09:58:59;;;;;;;14.05;11.43;;;20.50;99.90;;;;;;5074660;28;20036;-57
2022/07/31 10:01:29;;;;;;;13.25;11.73;;;20.40;99.90;;;;;;5074426;28;20037;-57
2022/07/31 10:03:59;;;;;;;16.15;12.25;;;20.30;99.90;;;;;;5073763;28;20115;-57
2022/07/31 10:06:26;;;;;;;13.55;12.10;;;20.40;99.90;;;;;;5062758;28;20037;-57
2022/07/31 10:08:54;;;;;;;17.40;12.70;;;20.40;99.90;;;;;;5074423;28;20120;-57
2022/07/31 10:11:24;;;;;;;13.95;12.32;;;20.40;99.90;;;;;;5074418;28;20037;-57
2022/07/31 10:13:53;;;;;;;17.55;12.48;;;20.30;99.90;;;;;;5069679;28;20040;-57
2022/07/31 10:16:21;;;;;;;16.02;12.05;;;20.40;99.90;;;;;;5073702;28;20044;-58
2022/07/31 10:18:51;;;;;;;13.32;11.85;;;20.40;99.90;;;;;;5072572;28;20055;-66
2022/07/31 10:21:17;;;;;;;18.80;13.98;;;20.40;99.90;;;;;;5065677;28;20475;-66
2022/07/31 10:23:44;;;;;;;14.55;13.05;;;20.40;99.90;;;;;;5054254;28;20036;-65
2022/07/31 10:26:10;;;;;;;14.45;10.88;;;20.30;99.90;;;;;;5070191;28;20087;-66
2022/07/31 10:28:36;;;;;;;20.35;11.90;;;20.40;99.90;;;;;;5070387;28;20082;-67
2022/07/31 10:31:02;;;;;;;12.45;11.25;;;20.40;99.90;;;;;;5061674;28;20045;-66
2022/07/31 10:33:29;;;;;;;13.80;11.48;;;20.40;99.90;;;;;;5053555;28;20055;-67
2022/07/31 10:36:13;;;;;;;15.75;12.23;;;20.30;99.90;;;;;;5059666;28;20395;-67
2022/07/31 10:38:48;;;;;;;17.20;12.10;;;20.30;99.90;;;;;;5073545;28;20048;-65
2022/07/31 10:41:37;;;;;;;17.70;13.77;;;20.30;99.90;;;;;;5074255;28;20119;-67
2022/07/31 10:44:12;;;;;;;15.93;12.15;;;20.20;99.90;;;;;;5032217;28;20046;-67
2022/07/31 10:46:37;;;;;;;18.33;13.45;;;20.00;99.90;;;;;;5032233;28;20048;-67
2022/07/31 10:49:03;;;;;;;17.30;14.63;;;20.10;99.90;;;;;;5031799;28;20428;-67
2022/07/31 10:51:30;;;;;;;18.48;15.30;;;20.20;99.90;;;;;;5031773;28;20103;-65
2022/07/31 10:54:00;;;;;;;15.63;13.90;;;20.10;99.90;;;;;;5032007;28;20041;-66
2022/07/31 10:56:27;;;;;;;16.95;14.23;;;20.00;99.90;;;;;;5032071;28;20054;-65
2022/07/31 10:58:55;;;;;;;21.48;16.75;;;20.00;99.90;;;;;;5031945;28;20109;-66
2022/07/31 11:01:24;;;;;;;16.90;15.10;;;20.00;99.90;;;;;;5030912;28;20133;-66
2022/07/31 11:03:53;;;;;;;18.20;13.95;;;19.80;99.90;;;;;;5031472;28;20045;-66
2022/07/31 11:06:20;;;;;;;18.95;16.25;;;19.80;99.90;;;;;;5031093;28;20072;-66
2022/07/31 11:08:48;;;;;;;19.70;16.30;;;19.80;99.90;;;;;;5030964;28;20068;-64
2022/07/31 11:11:14;;;;;;;20.08;15.30;;;19.80;99.90;;;;;;5032009;28;20096;-65
2022/07/31 11:13:51;;;;;;;20.25;15.82;;;19.90;99.90;;;;;;5031277;28;20048;-66
2022/07/31 11:16:18;;;;;;;20.08;15.93;;;20.00;99.90;;;;;;5031568;28;20099;-65
2022/07/31 11:18:54;;;;;;;20.67;17.67;;;19.80;99.90;;;;;;5031647;28;20055;-65
2022/07/31 11:21:39;;;;;;;21.20;16.75;;;19.90;99.90;;;;;;5045582;28;20055;-66
2022/07/31 11:24:18;;;;;;;18.75;16.50;;;20.00;99.90;;;;;;5053243;28;20041;-64
2022/07/31 11:26:57;;;;;;;22.38;17.13;;;19.90;99.90;;;;;;5052511;28;20083;-64
2022/07/31 11:29:38;;;;;;;17.45;15.57;;;20.00;99.90;;;;;;5053421;28;20048;-65
2022/07/31 11:32:03;;;;;;;17.52;15.73;;;19.70;99.90;;;;;;5055257;28;20040;-66
2022/07/31 11:34:50;;;;;;;21.88;17.58;;;19.90;99.90;;;;;;5058551;28;20056;-64
2022/07/31 11:37:29;;;;;;;22.13;18.05;;;19.80;99.90;;;;;;5062894;28;20082;-64
2022/07/31 11:39:55;;;;;;;21.55;17.40;;;19.70;99.90;;;;;;5057479;28;20083;-64
2022/07/31 11:42:22;;;;;;;18.17;15.88;;;19.70;99.90;;;;;;5071181;28;20387;-57
2022/07/31 11:44:48;;;;;;;16.00;14.30;;;19.60;99.90;;;;;;5075854;28;20041;-57
2022/07/31 11:47:14;;;;;;;15.32;12.65;;;19.60;99.90;;;;;;5076978;28;20033;-58
2022/07/31 11:49:40;;;;;;;15.35;13.73;;;19.70;99.90;;;;;;5077076;28;20032;-56
2022/07/31 11:52:11;;;;;;;21.45;14.55;;;19.60;99.90;;;;;;5076341;28;20097;-58
2022/07/31 11:54:37;;;;;;;17.27;14.90;;;19.70;99.90;;;;;;5076711;28;20521;-56
2022/07/31 11:57:04;;;;;;;22.77;16.27;;;19.50;99.90;;;;;;5076703;28;20041;-57
2022/07/31 11:59:30;;;;;;;23.75;16.63;;;19.60;99.90;;;;;;5076594;28;20041;-57
2022/07/31 12:02:06;;;;;;;17.35;15.48;;;19.40;99.90;;;;;;5076663;28;20036;-57
2022/07/31 12:04:35;;;;;;;19.77;15.55;;;19.40;99.90;;;;;;5076649;28;20040;-57
2022/07/31 12:07:01;;;;;;;18.23;16.33;;;19.30;99.90;;;;;;5076544;28;20475;-57
2022/07/31 12:09:27;;;;;;;18.40;16.52;;;19.40;99.90;;;;;;5076297;28;20490;-56
2022/07/31 12:11:53;;;;;;;17.20;15.40;;;19.40;99.90;;;;;;5076530;28;20055;-56
2022/07/31 12:14:30;;;;;;;19.33;16.90;;;19.40;99.90;;;;;;5076558;28;20036;-55
2022/07/31 12:16:56;;;;;;;16.80;14.82;;;19.30;99.90;;;;;;5076408;28;20105;-56
2022/07/31 12:19:29;;;;;;;15.95;14.02;;;19.50;99.90;;;;;;5076324;28;20530;-56
2022/07/31 12:21:56;;;;;;;18.35;16.35;;;19.50;99.90;;;;;;5076401;28;20043;-56
2022/07/31 12:24:22;;;;;;;16.35;14.60;;;19.50;99.90;;;;;;5076270;28;20047;-57
2022/07/31 12:26:51;;;;;;;15.80;12.75;;;19.20;99.90;;;;;;5076270;28;20427;-56
2022/07/31 12:29:18;;;;;;;17.70;14.20;;;19.30;99.90;;;;;;5076293;28;20398;-55
2022/07/31 12:31:51;;;;;;;14.98;13.48;;;19.20;99.90;;;;;;5076084;28;20127;-57
2022/07/31 12:34:39;;;;;;;15.70;12.95;;;19.30;99.90;;;;;;5076205;28;20476;-56
2022/07/31 12:37:08;;;;;;;18.45;14.05;;;19.10;99.90;;;;;;5075955;28;20395;-57
2022/07/31 12:39:49;;;;;;;16.88;14.88;;;19.10;99.90;;;;;;5076077;28;20084;-56
2022/07/31 12:42:22;;;;;;;16.77;15.05;;;19.00;99.90;;;;;;5075977;28;20040;-58
2022/07/31 12:44:49;;;;;;;16.25;13.60;;;19.20;99.90;;;;;;5076161;28;20421;-57
2022/07/31 12:47:29;;;;;;;19.75;14.43;;;19.10;99.90;;;;;;5075919;28;20044;-57